Data Viewer
| City | State | Eastern Time | Source | Daily Temp Max | Daily Temp Min | Daily Dew Point Max | Daily Dew Point Min | Daily RH Max | Daily Min RH | Daily BP Max | Daily BP Min | Daily Precip | Daily Wind Max | Daily Wind Max Dir |
|---|---|---|---|---|---|---|---|---|---|---|---|---|---|---|
| Wall Twp. | NJ | 2026-04-05 | Mesonet | 72 | 43 | 64 | 36 | 100 | 58 | 0.28 | 21 | SSW | ||
| Wall Twp. | NJ | 2026-04-21 | Mesonet | 48 | 31 | 37 | 14 | 72 | 29 | 0.00 | 16 | SE | ||
| Wall Twp. | NJ | 2026-05-04 | Mesonet | 73 | 46 | 52 | 32 | 76 | 29 | 0.00 | 21 | SW | ||
| Wall Twp. | NJ | 2026-05-03 | Mesonet | 61 | 45 | 36 | 26 | 58 | 27 | 0.00 | 26 | SW | ||
| Wall Twp. | NJ | 2026-05-02 | Mesonet | 61 | 48 | 49 | 35 | 94 | 54 | 0.00 | 10 | WSW | ||
| Wall Twp. | NJ | 2026-05-01 | Mesonet | 61 | 43 | 48 | 34 | 91 | 41 | 0.00 | 15 | S | ||
| Wall Twp. | NJ | 2026-04-30 | Mesonet | 62 | 46 | 53 | 45 | 100 | 70 | 0.58 | 15 | SSE | ||
| Wall Twp. | NJ | 2026-04-29 | Mesonet | 59 | 47 | 49 | 42 | 100 | 58 | 0.19 | 15 | SSE | ||
| Wall Twp. | NJ | 2026-04-28 | Mesonet | 63 | 39 | 44 | 36 | 95 | 40 | 0.00 | 11 | ESE | ||
| Wall Twp. | NJ | 2026-04-27 | Mesonet | 63 | 39 | 47 | 34 | 99 | 37 | 0.00 | 17 | E | ||
| Wall Twp. | NJ | 2026-04-26 | Mesonet | 51 | 39 | 45 | 38 | 101 | 74 | 0.28 | 26 | ENE | ||
| Wall Twp. | NJ | 2026-04-25 | Mesonet | 50 | 42 | 47 | 38 | 100 | 71 | 0.74 | 23 | E | ||
| Wall Twp. | NJ | 2026-04-24 | Mesonet | 61 | 49 | 50 | 36 | 90 | 47 | 0.00 | 20 | ENE | ||
| Wall Twp. | NJ | 2026-04-23 | Mesonet | 70 | 41 | 53 | 41 | 100 | 43 | 0.00 | 13 | S | ||
| Wall Twp. | NJ | 2026-04-22 | Mesonet | 58 | 45 | 51 | 36 | 100 | 67 | 0.04 | 18 | S | ||
| Wall Twp. | NJ | 2026-04-20 | Mesonet | 55 | 33 | 41 | 19 | 100 | 35 | 0.00 | 14 | WSW | ||
| Wall Twp. | NJ | 2026-04-06 | Mesonet | 58 | 41 | 37 | 26 | 70 | 31 | 0.00 | 17 | SW | ||
| Wall Twp. | NJ | 2026-04-19 | Mesonet | 52 | 39 | 51 | 36 | 100 | 64 | 0.06 | 17 | W | ||
| Wall Twp. | NJ | 2026-04-18 | Mesonet | 57 | 46 | 55 | 46 | 100 | 84 | 0.00 | 18 | ENE | ||
| Wall Twp. | NJ | 2026-04-17 | Mesonet | 79 | 51 | 67 | 51 | 99 | 46 | 0.14 | 20 | ENE | ||
| Wall Twp. | NJ | 2026-04-16 | Mesonet | 85 | 64 | 67 | 58 | 87 | 44 | 0.00 | 20 | SSE | ||
| Wall Twp. | NJ | 2026-04-15 | Mesonet | 91 | 64 | 66 | 57 | 90 | 38 | 0.00 | 21 | WSW | ||
| Wall Twp. | NJ | 2026-04-14 | Mesonet | 89 | 62 | 64 | 54 | 76 | 37 | 0.00 | 21 | W | ||
| Wall Twp. | NJ | 2026-04-13 | Mesonet | 80 | 46 | 61 | 42 | 89 | 44 | 0.00 | 22 | SSW | ||
| Wall Twp. | NJ | 2026-04-12 | Mesonet | 52 | 42 | 44 | 30 | 93 | 44 | 0.00 | 16 | SSW | ||
| Wall Twp. | NJ | 2026-04-11 | Mesonet | 66 | 47 | 47 | 28 | 87 | 26 | 0.00 | 16 | NNE | ||
| Wall Twp. | NJ | 2026-04-10 | Mesonet | 58 | 40 | 47 | 36 | 99 | 46 | 0.00 | 15 | ESE | ||
| Wall Twp. | NJ | 2026-04-09 | Mesonet | 48 | 28 | 41 | 27 | 99 | 64 | 0.00 | 14 | E | ||
| Wall Twp. | NJ | 2026-04-08 | Mesonet | 43 | 29 | 32 | 14 | 85 | 43 | 0.00 | 21 | ENE | ||
| Wall Twp. | NJ | 2026-04-07 | Mesonet | 57 | 35 | 40 | 11 | 81 | 21 | 0.00 | 22 | SE | ||
| Wall Twp. | NJ | 2026-05-05 | Mesonet | 75 | 54 | 56 | 50 | 94 | 47 | 0.00 | 15 | SSW |
data collection created in 0.0092580318450928 (queried in 0.002871) rendered in: 6.0081481933594E-5

